sensor_id;sensor_type;location;lat;lon;timestamp;pressure;altitude;pressure_sealevel;temperature;humidity
78144;BME280;67394;52.522;13.622;2024-01-27T00:00:55;101870.81;;;4.67;100.00
78144;BME280;67394;52.522;13.622;2024-01-27T00:03:22;101884.34;;;4.66;100.00
78144;BME280;67394;52.522;13.622;2024-01-27T00:05:48;101882.69;;;4.68;100.00
78144;BME280;67394;52.522;13.622;2024-01-27T00:08:15;101874.28;;;4.69;100.00
78144;BME280;67394;52.522;13.622;2024-01-27T00:10:41;101875.22;;;4.71;100.00
78144;BME280;67394;52.522;13.622;2024-01-27T00:13:08;101876.66;;;4.64;100.00
78144;BME280;67394;52.522;13.622;2024-01-27T00:15:34;101877.38;;;4.62;100.00
78144;BME280;67394;52.522;13.622;2024-01-27T00:18:01;101869.63;;;4.59;100.00
78144;BME280;67394;52.522;13.622;2024-01-27T00:20:28;101874.91;;;4.63;100.00
78144;BME280;67394;52.522;13.622;2024-01-27T00:22:55;101873.09;;;4.61;100.00
78144;BME280;67394;52.522;13.622;2024-01-27T00:25:21;101888.25;;;4.59;100.00
78144;BME280;67394;52.522;13.622;2024-01-27T00:27:48;101887.38;;;4.59;100.00
78144;BME280;67394;52.522;13.622;2024-01-27T00:30:15;101897.69;;;4.62;100.00
78144;BME280;67394;52.522;13.622;2024-01-27T00:32:42;101889.84;;;4.57;100.00
78144;BME280;67394;52.522;13.622;2024-01-27T00:35:09;101899.03;;;4.54;100.00
78144;BME280;67394;52.522;13.622;2024-01-27T00:37:36;101907.94;;;4.46;100.00
78144;BME280;67394;52.522;13.622;2024-01-27T00:40:02;101902.38;;;4.53;100.00
78144;BME280;67394;52.522;13.622;2024-01-27T00:42:29;101896.88;;;4.44;100.00
78144;BME280;67394;52.522;13.622;2024-01-27T00:44:56;101895.69;;;4.55;99.88
78144;BME280;67394;52.522;13.622;2024-01-27T00:47:22;101894.81;;;4.54;100.00
78144;BME280;67394;52.522;13.622;2024-01-27T00:49:49;101903.03;;;4.49;100.00
78144;BME280;67394;52.522;13.622;2024-01-27T00:52:16;101899.53;;;4.47;100.00
78144;BME280;67394;52.522;13.622;2024-01-27T00:54:43;101898.47;;;4.41;99.87
78144;BME280;67394;52.522;13.622;2024-01-27T00:57:09;101902.69;;;4.41;99.88
78144;BME280;67394;52.522;13.622;2024-01-27T00:59:36;101892.38;;;4.38;99.99
78144;BME280;67394;52.522;13.622;2024-01-27T01:02:03;101901.97;;;4.44;100.00
78144;BME280;67394;52.522;13.622;2024-01-27T01:04:30;101897.53;;;4.39;99.28
78144;BME280;67394;52.522;13.622;2024-01-27T01:06:57;101906.81;;;4.39;99.09
78144;BME280;67394;52.522;13.622;2024-01-27T01:09:24;101910.31;;;4.41;98.63
78144;BME280;67394;52.522;13.622;2024-01-27T01:11:51;101911.09;;;4.40;98.74
78144;BME280;67394;52.522;13.622;2024-01-27T01:14:18;101910.84;;;4.34;98.88
78144;BME280;67394;52.522;13.622;2024-01-27T01:16:44;101926.00;;;4.32;99.39
78144;BME280;67394;52.522;13.622;2024-01-27T01:19:11;101934.81;;;4.40;98.68
78144;BME280;67394;52.522;13.622;2024-01-27T01:21:38;101930.69;;;4.43;98.65
78144;BME280;67394;52.522;13.622;2024-01-27T01:24:04;101934.28;;;4.48;98.75
78144;BME280;67394;52.522;13.622;2024-01-27T01:26:31;101929.09;;;4.45;98.73
78144;BME280;67394;52.522;13.622;2024-01-27T01:28:57;101934.56;;;4.54;97.61
78144;BME280;67394;52.522;13.622;2024-01-27T01:31:24;101941.38;;;4.55;97.09
78144;BME280;67394;52.522;13.622;2024-01-27T01:33:51;101939.75;;;4.57;97.21
78144;BME280;67394;52.522;13.622;2024-01-27T01:36:18;101948.19;;;4.56;98.16
78144;BME280;67394;52.522;13.622;2024-01-27T01:38:45;101946.47;;;4.55;97.68
78144;BME280;67394;52.522;13.622;2024-01-27T01:41:13;101951.53;;;4.55;96.51
78144;BME280;67394;52.522;13.622;2024-01-27T01:43:39;101942.84;;;4.50;96.96
78144;BME280;67394;52.522;13.622;2024-01-27T01:46:07;101956.56;;;4.53;96.99
78144;BME280;67394;52.522;13.622;2024-01-27T01:48:33;101946.31;;;4.52;95.96
78144;BME280;67394;52.522;13.622;2024-01-27T01:51:00;101950.91;;;4.41;97.92
78144;BME280;67394;52.522;13.622;2024-01-27T01:53:27;101954.25;;;4.40;97.54
78144;BME280;67394;52.522;13.622;2024-01-27T01:55:55;101952.44;;;4.37;98.01
78144;BME280;67394;52.522;13.622;2024-01-27T01:58:21;101955.38;;;4.47;96.35
78144;BME280;67394;52.522;13.622;2024-01-27T02:00:48;101952.78;;;4.45;96.71
78144;BME280;67394;52.522;13.622;2024-01-27T02:03:14;101962.13;;;4.46;96.48
78144;BME280;67394;52.522;13.622;2024-01-27T02:05:41;101959.56;;;4.45;97.04
78144;BME280;67394;52.522;13.622;2024-01-27T02:08:08;101976.06;;;4.36;98.86
78144;BME280;67394;52.522;13.622;2024-01-27T02:10:34;101987.97;;;4.37;97.49
78144;BME280;67394;52.522;13.622;2024-01-27T02:13:01;101978.91;;;4.43;97.82
78144;BME280;67394;52.522;13.622;2024-01-27T02:15:28;101973.75;;;4.41;97.44
78144;BME280;67394;52.522;13.622;2024-01-27T02:17:54;101989.56;;;4.35;98.61
78144;BME280;67394;52.522;13.622;2024-01-27T02:20:21;101992.16;;;4.37;98.96
78144;BME280;67394;52.522;13.622;2024-01-27T02:22:48;101986.38;;;4.39;98.38
78144;BME280;67394;52.522;13.622;2024-01-27T02:25:15;101990.81;;;4.44;97.92
78144;BME280;67394;52.522;13.622;2024-01-27T02:27:41;101984.63;;;4.38;99.14
78144;BME280;67394;52.522;13.622;2024-01-27T02:30:08;101990.72;;;4.42;98.73
78144;BME280;67394;52.522;13.622;2024-01-27T02:32:35;101989.56;;;4.35;99.79
78144;BME280;67394;52.522;13.622;2024-01-27T02:35:02;101988.84;;;4.38;99.24
78144;BME280;67394;52.522;13.622;2024-01-27T02:37:29;101993.34;;;4.26;100.00
78144;BME280;67394;52.522;13.622;2024-01-27T02:39:56;101995.69;;;4.21;100.00
78144;BME280;67394;52.522;13.622;2024-01-27T02:42:22;101990.72;;;4.24;100.00
78144;BME280;67394;52.522;13.622;2024-01-27T02:44:50;101992.91;;;4.34;100.00
78144;BME280;67394;52.522;13.622;2024-01-27T02:47:17;101989.13;;;4.26;100.00
78144;BME280;67394;52.522;13.622;2024-01-27T02:49:43;102004.38;;;4.26;100.00
78144;BME280;67394;52.522;13.622;2024-01-27T02:52:10;102009.06;;;4.36;100.00
78144;BME280;67394;52.522;13.622;2024-01-27T02:54:37;102004.66;;;4.32;100.00
78144;BME280;67394;52.522;13.622;2024-01-27T02:57:03;102006.44;;;4.35;100.00
78144;BME280;67394;52.522;13.622;2024-01-27T02:59:30;102011.50;;;4.33;100.00
78144;BME280;67394;52.522;13.622;2024-01-27T03:01:56;102010.66;;;4.34;100.00
78144;BME280;67394;52.522;13.622;2024-01-27T03:04:23;102017.34;;;4.32;100.00
78144;BME280;67394;52.522;13.622;2024-01-27T03:06:50;102010.72;;;4.36;100.00
78144;BME280;67394;52.522;13.622;2024-01-27T03:09:16;102016.59;;;4.35;100.00
78144;BME280;67394;52.522;13.622;2024-01-27T03:11:43;102025.47;;;4.43;100.00
78144;BME280;67394;52.522;13.622;2024-01-27T03:14:10;102020.16;;;4.38;100.00
78144;BME280;67394;52.522;13.622;2024-01-27T03:16:36;102028.72;;;4.40;100.00
78144;BME280;67394;52.522;13.622;2024-01-27T03:19:03;102015.88;;;4.37;100.00
78144;BME280;67394;52.522;13.622;2024-01-27T03:21:30;102015.81;;;4.36;100.00
78144;BME280;67394;52.522;13.622;2024-01-27T03:23:57;102027.00;;;4.39;100.00
78144;BME280;67394;52.522;13.622;2024-01-27T03:26:23;102029.38;;;4.36;100.00
78144;BME280;67394;52.522;13.622;2024-01-27T03:28:50;102041.13;;;4.34;100.00
78144;BME280;67394;52.522;13.622;2024-01-27T03:31:17;102027.63;;;4.35;100.00
78144;BME280;67394;52.522;13.622;2024-01-27T03:33:44;102041.94;;;4.33;100.00
78144;BME280;67394;52.522;13.622;2024-01-27T03:36:12;102049.69;;;4.36;100.00
78144;BME280;67394;52.522;13.622;2024-01-27T03:38:40;102050.47;;;4.35;100.00
78144;BME280;67394;52.522;13.622;2024-01-27T03:41:07;102039.97;;;4.28;100.00
78144;BME280;67394;52.522;13.622;2024-01-27T03:43:33;102052.09;;;4.33;100.00
78144;BME280;67394;52.522;13.622;2024-01-27T03:46:00;102039.88;;;4.26;100.00
78144;BME280;67394;52.522;13.622;2024-01-27T03:48:27;102054.13;;;4.23;100.00
78144;BME280;67394;52.522;13.622;2024-01-27T03:50:54;102059.47;;;4.29;100.00
78144;BME280;67394;52.522;13.622;2024-01-27T03:53:20;102060.19;;;4.26;100.00
78144;BME280;67394;52.522;13.622;2024-01-27T03:55:47;102045.47;;;4.19;100.00
78144;BME280;67394;52.522;13.622;2024-01-27T03:58:14;102056.44;;;4.18;100.00
78144;BME280;67394;52.522;13.622;2024-01-27T04:00:41;102056.44;;;4.18;100.00
78144;BME280;67394;52.522;13.622;2024-01-27T04:03:11;102058.16;;;4.19;100.00
78144;BME280;67394;52.522;13.622;2024-01-27T04:05:38;102060.09;;;4.07;100.00
78144;BME280;67394;52.522;13.622;2024-01-27T04:08:05;102066.84;;;4.07;100.00
78144;BME280;67394;52.522;13.622;2024-01-27T04:10:32;102063.53;;;4.08;100.00
78144;BME280;67394;52.522;13.622;2024-01-27T04:12:59;102072.78;;;4.07;100.00
78144;BME280;67394;52.522;13.622;2024-01-27T04:15:25;102061.50;;;4.00;100.00
78144;BME280;67394;52.522;13.622;2024-01-27T04:17:52;102067.91;;;3.94;100.00
78144;BME280;67394;52.522;13.622;2024-01-27T04:20:18;102073.78;;;3.93;100.00
78144;BME280;67394;52.522;13.622;2024-01-27T04:22:45;102096.56;;;3.91;100.00
78144;BME280;67394;52.522;13.622;2024-01-27T04:25:12;102106.47;;;3.87;100.00
78144;BME280;67394;52.522;13.622;2024-01-27T04:27:39;102104.09;;;3.90;100.00
78144;BME280;67394;52.522;13.622;2024-01-27T04:30:07;102114.22;;;3.90;100.00
78144;BME280;67394;52.522;13.622;2024-01-27T04:32:34;102116.91;;;3.93;100.00
78144;BME280;67394;52.522;13.622;2024-01-27T04:35:00;102127.53;;;4.02;100.00
78144;BME280;67394;52.522;13.622;2024-01-27T04:37:27;102123.16;;;3.99;100.00
78144;BME280;67394;52.522;13.622;2024-01-27T04:39:54;102121.03;;;3.91;100.00
78144;BME280;67394;52.522;13.622;2024-01-27T04:42:20;102132.09;;;3.93;100.00
78144;BME280;67394;52.522;13.622;2024-01-27T04:44:47;102132.94;;;3.92;100.00
78144;BME280;67394;52.522;13.622;2024-01-27T04:47:14;102153.06;;;3.89;100.00
78144;BME280;67394;52.522;13.622;2024-01-27T04:49:40;102144.66;;;3.90;100.00
78144;BME280;67394;52.522;13.622;2024-01-27T04:52:07;102146.31;;;3.89;100.00
78144;BME280;67394;52.522;13.622;2024-01-27T04:54:34;102142.59;;;3.99;100.00
78144;BME280;67394;52.522;13.622;2024-01-27T04:57:00;102148.94;;;3.91;100.00
78144;BME280;67394;52.522;13.622;2024-01-27T04:59:27;102143.22;;;3.95;100.00
78144;BME280;67394;52.522;13.622;2024-01-27T05:01:54;102143.13;;;3.93;100.00
78144;BME280;67394;52.522;13.622;2024-01-27T05:04:21;102150.81;;;3.95;100.00
78144;BME280;67394;52.522;13.622;2024-01-27T05:06:47;102171.78;;;3.91;100.00
78144;BME280;67394;52.522;13.622;2024-01-27T05:09:14;102168.13;;;4.02;100.00
78144;BME280;67394;52.522;13.622;2024-01-27T05:11:41;102166.13;;;3.96;100.00
78144;BME280;67394;52.522;13.622;2024-01-27T05:14:08;102173.97;;;4.01;100.00
78144;BME280;67394;52.522;13.622;2024-01-27T05:16:34;102184.22;;;4.02;100.00
78144;BME280;67394;52.522;13.622;2024-01-27T05:19:01;102185.53;;;3.96;100.00
78144;BME280;67394;52.522;13.622;2024-01-27T05:21:27;102190.78;;;3.99;100.00
78144;BME280;67394;52.522;13.622;2024-01-27T05:23:54;102179.91;;;4.01;100.00
78144;BME280;67394;52.522;13.622;2024-01-27T05:26:21;102191.06;;;4.05;100.00
78144;BME280;67394;52.522;13.622;2024-01-27T05:28:48;102194.19;;;3.99;100.00
78144;BME280;67394;52.522;13.622;2024-01-27T05:31:14;102189.50;;;4.07;100.00
78144;BME280;67394;52.522;13.622;2024-01-27T05:33:42;102193.22;;;3.97;100.00
78144;BME280;67394;52.522;13.622;2024-01-27T05:36:09;102185.38;;;3.93;100.00
78144;BME280;67394;52.522;13.622;2024-01-27T05:38:36;102180.38;;;3.94;100.00
78144;BME280;67394;52.522;13.622;2024-01-27T05:41:03;102188.25;;;3.99;100.00
78144;BME280;67394;52.522;13.622;2024-01-27T05:43:30;102193.47;;;4.02;100.00
78144;BME280;67394;52.522;13.622;2024-01-27T05:45:56;102197.59;;;4.00;100.00
78144;BME280;67394;52.522;13.622;2024-01-27T05:48:23;102198.56;;;4.02;100.00
78144;BME280;67394;52.522;13.622;2024-01-27T05:50:58;102197.25;;;3.94;100.00
78144;BME280;67394;52.522;13.622;2024-01-27T05:53:26;102193.94;;;3.95;100.00
78144;BME280;67394;52.522;13.622;2024-01-27T05:55:53;102210.91;;;3.96;100.00
78144;BME280;67394;52.522;13.622;2024-01-27T05:58:20;102221.44;;;4.03;100.00
78144;BME280;67394;52.522;13.622;2024-01-27T06:00:47;102221.38;;;4.02;100.00
78144;BME280;67394;52.522;13.622;2024-01-27T06:03:15;102219.72;;;4.02;100.00
78144;BME280;67394;52.522;13.622;2024-01-27T06:05:41;102227.25;;;4.01;100.00
78144;BME280;67394;52.522;13.622;2024-01-27T06:08:08;102223.91;;;4.02;100.00
78144;BME280;67394;52.522;13.622;2024-01-27T06:10:35;102218.03;;;4.03;100.00
78144;BME280;67394;52.522;13.622;2024-01-27T06:13:02;102226.47;;;4.02;100.00
78144;BME280;67394;52.522;13.622;2024-01-27T06:15:29;102228.16;;;4.03;100.00
78144;BME280;67394;52.522;13.622;2024-01-27T06:17:56;102236.81;;;4.07;100.00
78144;BME280;67394;52.522;13.622;2024-01-27T06:20:23;102245.47;;;4.10;100.00
78144;BME280;67394;52.522;13.622;2024-01-27T06:22:50;102249.75;;;4.11;100.00
78144;BME280;67394;52.522;13.622;2024-01-27T06:25:16;102258.25;;;4.12;100.00
78144;BME280;67394;52.522;13.622;2024-01-27T06:27:43;102255.91;;;4.16;100.00
78144;BME280;67394;52.522;13.622;2024-01-27T06:30:10;102267.72;;;4.16;100.00
78144;BME280;67394;52.522;13.622;2024-01-27T06:32:36;102251.31;;;4.25;100.00
78144;BME280;67394;52.522;13.622;2024-01-27T06:35:03;102259.34;;;4.33;100.00
78144;BME280;67394;52.522;13.622;2024-01-27T06:37:30;102264.31;;;4.31;100.00
78144;BME280;67394;52.522;13.622;2024-01-27T06:39:57;102264.09;;;4.27;100.00
78144;BME280;67394;52.522;13.622;2024-01-27T06:42:23;102275.44;;;4.33;100.00
78144;BME280;67394;52.522;13.622;2024-01-27T06:44:50;102289.78;;;4.33;100.00
78144;BME280;67394;52.522;13.622;2024-01-27T06:47:17;102295.66;;;4.32;100.00
78144;BME280;67394;52.522;13.622;2024-01-27T06:49:43;102293.34;;;4.36;100.00
78144;BME280;67394;52.522;13.622;2024-01-27T06:52:10;102304.16;;;4.32;100.00
78144;BME280;67394;52.522;13.622;2024-01-27T06:54:37;102304.63;;;4.41;100.00
78144;BME280;67394;52.522;13.622;2024-01-27T06:57:03;102316.50;;;4.43;100.00
78144;BME280;67394;52.522;13.622;2024-01-27T06:59:30;102309.44;;;4.53;100.00
78144;BME280;67394;52.522;13.622;2024-01-27T07:02:00;102324.22;;;4.44;100.00
78144;BME280;67394;52.522;13.622;2024-01-27T07:04:27;102319.34;;;4.49;100.00
78144;BME280;67394;52.522;13.622;2024-01-27T07:06:54;102325.22;;;4.48;100.00
78144;BME280;67394;52.522;13.622;2024-01-27T07:09:21;102326.00;;;4.47;100.00
78144;BME280;67394;52.522;13.622;2024-01-27T07:11:48;102333.97;;;4.53;100.00
78144;BME280;67394;52.522;13.622;2024-01-27T07:14:14;102339.59;;;4.47;100.00
78144;BME280;67394;52.522;13.622;2024-01-27T07:16:41;102329.22;;;4.43;100.00
78144;BME280;67394;52.522;13.622;2024-01-27T07:19:08;102340.31;;;4.45;100.00
78144;BME280;67394;52.522;13.622;2024-01-27T07:21:35;102336.34;;;4.50;100.00
78144;BME280;67394;52.522;13.622;2024-01-27T07:24:02;102341.50;;;4.51;100.00
78144;BME280;67394;52.522;13.622;2024-01-27T07:26:28;102353.41;;;4.52;100.00
78144;BME280;67394;52.522;13.622;2024-01-27T07:28:55;102346.75;;;4.54;100.00
78144;BME280;67394;52.522;13.622;2024-01-27T07:31:22;102350.53;;;4.46;100.00
78144;BME280;67394;52.522;13.622;2024-01-27T07:33:48;102351.41;;;4.47;100.00
78144;BME280;67394;52.522;13.622;2024-01-27T07:36:15;102355.94;;;4.52;100.00
78144;BME280;67394;52.522;13.622;2024-01-27T07:38:42;102359.97;;;4.49;100.00
78144;BME280;67394;52.522;13.622;2024-01-27T07:41:09;102358.13;;;4.46;100.00
78144;BME280;67394;52.522;13.622;2024-01-27T07:43:35;102370.38;;;4.53;100.00
78144;BME280;67394;52.522;13.622;2024-01-27T07:46:01;102368.88;;;4.40;100.00
78144;BME280;67394;52.522;13.622;2024-01-27T07:48:28;102374.09;;;4.44;100.00
78144;BME280;67394;52.522;13.622;2024-01-27T07:50:56;102385.38;;;4.49;100.00
78144;BME280;67394;52.522;13.622;2024-01-27T07:53:23;102380.28;;;4.49;100.00
78144;BME280;67394;52.522;13.622;2024-01-27T07:55:49;102399.28;;;4.55;100.00
78144;BME280;67394;52.522;13.622;2024-01-27T07:58:15;102394.97;;;4.54;100.00
78144;BME280;67394;52.522;13.622;2024-01-27T08:00:43;102400.28;;;4.59;100.00
78144;BME280;67394;52.522;13.622;2024-01-27T08:03:11;102393.44;;;4.58;100.00
78144;BME280;67394;52.522;13.622;2024-01-27T08:05:38;102411.22;;;4.58;100.00
78144;BME280;67394;52.522;13.622;2024-01-27T08:08:05;102409.44;;;4.55;100.00
78144;BME280;67394;52.522;13.622;2024-01-27T08:10:32;102404.47;;;4.58;100.00
78144;BME280;67394;52.522;13.622;2024-01-27T08:12:58;102408.69;;;4.58;100.00
78144;BME280;67394;52.522;13.622;2024-01-27T08:15:25;102407.28;;;4.63;100.00
78144;BME280;67394;52.522;13.622;2024-01-27T08:17:52;102410.13;;;4.69;100.00
78144;BME280;67394;52.522;13.622;2024-01-27T08:20:19;102410.13;;;4.69;100.00
78144;BME280;67394;52.522;13.622;2024-01-27T08:22:45;102409.31;;;4.70;100.00
78144;BME280;67394;52.522;13.622;2024-01-27T08:25:12;102411.16;;;4.72;100.00
78144;BME280;67394;52.522;13.622;2024-01-27T08:27:38;102419.09;;;4.78;100.00
78144;BME280;67394;52.522;13.622;2024-01-27T08:30:05;102425.03;;;4.79;100.00
78144;BME280;67394;52.522;13.622;2024-01-27T08:32:32;102426.94;;;4.83;100.00
78144;BME280;67394;52.522;13.622;2024-01-27T08:35:00;102417.75;;;4.85;100.00
78144;BME280;67394;52.522;13.622;2024-01-27T08:37:27;102421.25;;;4.87;100.00
78144;BME280;67394;52.522;13.622;2024-01-27T08:39:53;102410.66;;;4.96;100.00
78144;BME280;67394;52.522;13.622;2024-01-27T08:42:20;102423.03;;;5.06;100.00
78144;BME280;67394;52.522;13.622;2024-01-27T08:44:46;102424.88;;;5.08;100.00
78144;BME280;67394;52.522;13.622;2024-01-27T08:47:13;102404.03;;;5.15;100.00
78144;BME280;67394;52.522;13.622;2024-01-27T08:49:40;102421.13;;;5.18;100.00
78144;BME280;67394;52.522;13.622;2024-01-27T08:52:06;102432.00;;;5.15;100.00
78144;BME280;67394;52.522;13.622;2024-01-27T08:54:34;102434.69;;;5.19;100.00
78144;BME280;67394;52.522;13.622;2024-01-27T08:57:00;102434.13;;;5.24;100.00
78144;BME280;67394;52.522;13.622;2024-01-27T08:59:27;102441.03;;;5.27;100.00
78144;BME280;67394;52.522;13.622;2024-01-27T09:01:53;102434.50;;;5.32;100.00
78144;BME280;67394;52.522;13.622;2024-01-27T09:04:20;102448.16;;;5.34;100.00
78144;BME280;67394;52.522;13.622;2024-01-27T09:06:48;102449.91;;;5.35;100.00
78144;BME280;67394;52.522;13.622;2024-01-27T09:09:15;102434.94;;;5.41;100.00
78144;BME280;67394;52.522;13.622;2024-01-27T09:11:43;102433.84;;;5.36;100.00
78144;BME280;67394;52.522;13.622;2024-01-27T09:14:10;102441.94;;;5.45;100.00
78144;BME280;67394;52.522;13.622;2024-01-27T09:16:36;102448.94;;;5.49;100.00
78144;BME280;67394;52.522;13.622;2024-01-27T09:19:03;102437.63;;;5.44;100.00
78144;BME280;67394;52.522;13.622;2024-01-27T09:21:30;102452.28;;;5.48;100.00
78144;BME280;67394;52.522;13.622;2024-01-27T09:23:56;102448.13;;;5.50;100.00
78144;BME280;67394;52.522;13.622;2024-01-27T09:26:23;102448.50;;;5.58;100.00
78144;BME280;67394;52.522;13.622;2024-01-27T09:28:50;102461.06;;;5.55;100.00
78144;BME280;67394;52.522;13.622;2024-01-27T09:31:16;102460.97;;;5.53;100.00
78144;BME280;67394;52.522;13.622;2024-01-27T09:33:43;102457.97;;;5.60;100.00
78144;BME280;67394;52.522;13.622;2024-01-27T09:36:09;102465.78;;;5.65;100.00
78144;BME280;67394;52.522;13.622;2024-01-27T09:38:36;102468.41;;;5.66;100.00
78144;BME280;67394;52.522;13.622;2024-01-27T09:41:03;102474.31;;;5.65;100.00
78144;BME280;67394;52.522;13.622;2024-01-27T09:43:30;102477.72;;;5.66;100.00
78144;BME280;67394;52.522;13.622;2024-01-27T09:45:58;102478.66;;;5.68;100.00
78144;BME280;67394;52.522;13.622;2024-01-27T09:48:25;102484.72;;;5.70;100.00
78144;BME280;67394;52.522;13.622;2024-01-27T09:50:57;102489.47;;;5.64;100.00
78144;BME280;67394;52.522;13.622;2024-01-27T09:53:24;102490.50;;;5.67;100.00
78144;BME280;67394;52.522;13.622;2024-01-27T09:55:51;102499.03;;;5.68;100.00
78144;BME280;67394;52.522;13.622;2024-01-27T09:58:18;102495.09;;;5.74;100.00
78144;BME280;67394;52.522;13.622;2024-01-27T10:00:44;102503.22;;;5.67;100.00
78144;BME280;67394;52.522;13.622;2024-01-27T10:03:15;102494.09;;;5.71;100.00
78144;BME280;67394;52.522;13.622;2024-01-27T10:05:43;102491.75;;;5.75;100.00
78144;BME280;67394;52.522;13.622;2024-01-27T10:08:10;102488.16;;;5.88;100.00
78144;BME280;67394;52.522;13.622;2024-01-27T10:10:37;102491.28;;;5.82;100.00
78144;BME280;67394;52.522;13.622;2024-01-27T10:13:04;102513.78;;;5.91;100.00
78144;BME280;67394;52.522;13.622;2024-01-27T10:15:31;102495.69;;;5.86;100.00
78144;BME280;67394;52.522;13.622;2024-01-27T10:18:07;102502.66;;;5.89;100.00
78144;BME280;67394;52.522;13.622;2024-01-27T10:20:34;102501.13;;;5.93;100.00
78144;BME280;67394;52.522;13.622;2024-01-27T10:23:10;102509.69;;;5.95;100.00
78144;BME280;67394;52.522;13.622;2024-01-27T10:25:40;102503.16;;;6.00;100.00
78144;BME280;67394;52.522;13.622;2024-01-27T10:28:08;102507.63;;;6.04;100.00
78144;BME280;67394;52.522;13.622;2024-01-27T10:30:35;102514.41;;;6.05;100.00
78144;BME280;67394;52.522;13.622;2024-01-27T10:33:02;102501.94;;;6.09;100.00
78144;BME280;67394;52.522;13.622;2024-01-27T10:35:29;102504.75;;;6.15;100.00
78144;BME280;67394;52.522;13.622;2024-01-27T10:37:56;102501.84;;;6.25;100.00
78144;BME280;67394;52.522;13.622;2024-01-27T10:40:25;102498.47;;;6.27;98.75
78144;BME280;67394;52.522;13.622;2024-01-27T10:43:07;102506.28;;;6.30;99.77
78144;BME280;67394;52.522;13.622;2024-01-27T10:45:36;102508.03;;;6.31;99.25
78144;BME280;67394;52.522;13.622;2024-01-27T10:48:04;102508.59;;;6.25;98.91
78144;BME280;67394;52.522;13.622;2024-01-27T10:50:35;102518.50;;;6.19;97.17
78144;BME280;67394;52.522;13.622;2024-01-27T10:53:05;102508.31;;;6.19;96.88
78144;BME280;67394;52.522;13.622;2024-01-27T10:55:36;102520.41;;;6.23;97.75
78144;BME280;67394;52.522;13.622;2024-01-27T10:58:03;102516.47;;;6.30;98.33
78144;BME280;67394;52.522;13.622;2024-01-27T11:00:31;102522.69;;;6.36;97.71
78144;BME280;67394;52.522;13.622;2024-01-27T11:03:01;102522.06;;;6.40;96.42
78144;BME280;67394;52.522;13.622;2024-01-27T11:05:28;102523.47;;;6.34;96.57
78144;BME280;67394;52.522;13.622;2024-01-27T11:07:58;102531.09;;;6.34;95.87
78144;BME280;67394;52.522;13.622;2024-01-27T11:10:25;102527.75;;;6.35;95.79
78144;BME280;67394;52.522;13.622;2024-01-27T11:12:53;102529.13;;;6.28;97.41
78144;BME280;67394;52.522;13.622;2024-01-27T11:15:21;102526.66;;;6.30;97.54
78144;BME280;67394;52.522;13.622;2024-01-27T11:17:48;102523.38;;;6.32;98.55
78144;BME280;67394;52.522;13.622;2024-01-27T11:20:15;102534.88;;;6.42;98.17
78144;BME280;67394;52.522;13.622;2024-01-27T11:22:42;102535.50;;;6.38;97.24
78144;BME280;67394;52.522;13.622;2024-01-27T11:27:34;102531.28;;;6.38;97.67
78144;BME280;67394;52.522;13.622;2024-01-27T11:30:02;102536.38;;;6.38;98.47
78144;BME280;67394;52.522;13.622;2024-01-27T11:32:29;102530.34;;;6.36;99.08
78144;BME280;67394;52.522;13.622;2024-01-27T11:34:56;102525.31;;;6.38;98.51
78144;BME280;67394;52.522;13.622;2024-01-27T11:37:23;102535.13;;;6.48;98.00
78144;BME280;67394;52.522;13.622;2024-01-27T11:39:49;102542.50;;;6.42;97.55
78144;BME280;67394;52.522;13.622;2024-01-27T11:42:17;102544.19;;;6.41;97.96
78144;BME280;67394;52.522;13.622;2024-01-27T11:44:44;102541.41;;;6.37;97.10
78144;BME280;67394;52.522;13.622;2024-01-27T11:47:17;102545.13;;;6.43;97.58
78144;BME280;67394;52.522;13.622;2024-01-27T11:49:55;102556.91;;;6.41;97.31
78144;BME280;67394;52.522;13.622;2024-01-27T11:52:23;102554.72;;;6.49;98.37
78144;BME280;67394;52.522;13.622;2024-01-27T11:54:57;102574.38;;;6.51;96.37
78144;BME280;67394;52.522;13.622;2024-01-27T11:57:24;102566.81;;;6.35;95.44
78144;BME280;67394;52.522;13.622;2024-01-27T11:59:51;102573.63;;;6.36;96.75
78144;BME280;67394;52.522;13.622;2024-01-27T12:02:18;102571.97;;;6.37;94.79
78144;BME280;67394;52.522;13.622;2024-01-27T12:04:47;102570.28;;;6.37;94.99
78144;BME280;67394;52.522;13.622;2024-01-27T12:07:16;102570.09;;;6.33;94.68
78144;BME280;67394;52.522;13.622;2024-01-27T12:09:43;102565.34;;;6.40;96.74
78144;BME280;67394;52.522;13.622;2024-01-27T12:12:12;102563.16;;;6.48;95.20
78144;BME280;67394;52.522;13.622;2024-01-27T12:14:47;102582.81;;;6.50;96.01
78144;BME280;67394;52.522;13.622;2024-01-27T12:17:14;102582.81;;;6.50;96.60
78144;BME280;67394;52.522;13.622;2024-01-27T12:19:47;102588.88;;;6.52;97.16
78144;BME280;67394;52.522;13.622;2024-01-27T12:24:48;102599.50;;;6.44;98.40
78144;BME280;67394;52.522;13.622;2024-01-27T12:27:16;102604.34;;;6.39;99.49
78144;BME280;67394;52.522;13.622;2024-01-27T12:29:43;102605.38;;;6.43;98.98
78144;BME280;67394;52.522;13.622;2024-01-27T12:32:10;102612.16;;;6.42;98.91
78144;BME280;67394;52.522;13.622;2024-01-27T12:34:40;102606.38;;;6.46;99.76
78144;BME280;67394;52.522;13.622;2024-01-27T12:37:08;102613.97;;;6.45;99.12
78144;BME280;67394;52.522;13.622;2024-01-27T12:39:37;102607.13;;;6.44;99.81
78144;BME280;67394;52.522;13.622;2024-01-27T12:42:04;102613.97;;;6.45;100.00
78144;BME280;67394;52.522;13.622;2024-01-27T12:44:31;102618.03;;;6.41;99.88
78144;BME280;67394;52.522;13.622;2024-01-27T12:46:58;102618.03;;;6.41;100.00